sensor_id;sensor_type;location;lat;lon;timestamp;pressure;altitude;pressure_sealevel;temperature;humidity
50672;BME280;46021;55.882;37.654;2023-03-23T00:02:25;99265.50;;;3.89;60.39
50672;BME280;46021;55.882;37.654;2023-03-23T00:04:53;99260.28;;;3.96;59.40
50672;BME280;46021;55.882;37.654;2023-03-23T00:07:21;99268.84;;;3.98;59.84
50672;BME280;46021;55.882;37.654;2023-03-23T00:09:54;99259.38;;;3.97;59.75
50672;BME280;46021;55.882;37.654;2023-03-23T00:12:23;99246.53;;;3.94;59.08
50672;BME280;46021;55.882;37.654;2023-03-23T00:14:54;99258.50;;;4.01;59.46
50672;BME280;46021;55.882;37.654;2023-03-23T00:17:21;99249.91;;;3.99;59.99
50672;BME280;46021;55.882;37.654;2023-03-23T00:19:49;99241.28;;;4.01;59.31
50672;BME280;46021;55.882;37.654;2023-03-23T00:22:17;99244.75;;;3.99;59.52
50672;BME280;46021;55.882;37.654;2023-03-23T00:24:47;99246.41;;;4.04;59.65
50672;BME280;46021;55.882;37.654;2023-03-23T00:27:16;99245.47;;;4.10;59.11
50672;BME280;46021;55.882;37.654;2023-03-23T00:29:44;99236.06;;;4.06;58.82
50672;BME280;46021;55.882;37.654;2023-03-23T00:32:12;99234.41;;;4.00;59.31
50672;BME280;46021;55.882;37.654;2023-03-23T00:34:44;99245.50;;;4.08;59.35
50672;BME280;46021;55.882;37.654;2023-03-23T00:37:12;99240.38;;;4.04;60.24
50672;BME280;46021;55.882;37.654;2023-03-23T00:39:42;99237.78;;;4.07;60.22
50672;BME280;46021;55.882;37.654;2023-03-23T00:42:12;99231.78;;;4.06;59.55
50672;BME280;46021;55.882;37.654;2023-03-23T00:44:40;99229.16;;;4.09;59.12
50672;BME280;46021;55.882;37.654;2023-03-23T00:47:09;99229.16;;;4.08;59.48
50672;BME280;46021;55.882;37.654;2023-03-23T00:49:38;99224.09;;;4.00;59.46
50672;BME280;46021;55.882;37.654;2023-03-23T00:52:06;99227.41;;;4.10;59.96
50672;BME280;46021;55.882;37.654;2023-03-23T00:54:33;99223.97;;;4.13;58.95
50672;BME280;46021;55.882;37.654;2023-03-23T00:57:04;99223.16;;;4.07;59.69
50672;BME280;46021;55.882;37.654;2023-03-23T00:59:32;99218.81;;;4.11;59.06
50672;BME280;46021;55.882;37.654;2023-03-23T01:01:59;99225.63;;;4.15;60.23
50672;BME280;46021;55.882;37.654;2023-03-23T01:04:28;99211.88;;;4.16;58.93
50672;BME280;46021;55.882;37.654;2023-03-23T01:06:57;99223.88;;;4.17;59.43
50672;BME280;46021;55.882;37.654;2023-03-23T01:09:26;99222.13;;;4.19;59.35
50672;BME280;46021;55.882;37.654;2023-03-23T01:11:53;99215.22;;;4.21;59.00
50672;BME280;46021;55.882;37.654;2023-03-23T01:14:22;99223.84;;;4.20;59.37
50672;BME280;46021;55.882;37.654;2023-03-23T01:16:49;99214.47;;;4.15;59.94
50672;BME280;46021;55.882;37.654;2023-03-23T01:19:16;99219.63;;;4.15;59.09
50672;BME280;46021;55.882;37.654;2023-03-23T01:21:45;99222.22;;;4.13;59.78
50672;BME280;46021;55.882;37.654;2023-03-23T01:24:12;99211.81;;;4.19;59.08
50672;BME280;46021;55.882;37.654;2023-03-23T01:26:39;99220.47;;;4.15;60.54
50672;BME280;46021;55.882;37.654;2023-03-23T01:29:06;99212.72;;;4.18;59.31
50672;BME280;46021;55.882;37.654;2023-03-23T01:31:34;99205.84;;;4.16;59.35
50672;BME280;46021;55.882;37.654;2023-03-23T01:34:03;99203.22;;;4.20;59.26
50672;BME280;46021;55.882;37.654;2023-03-23T01:36:30;99208.38;;;4.20;59.83
50672;BME280;46021;55.882;37.654;2023-03-23T01:39:03;99188.66;;;4.16;60.19
50672;BME280;46021;55.882;37.654;2023-03-23T01:41:33;99196.28;;;4.25;60.21
50672;BME280;46021;55.882;37.654;2023-03-23T01:44:07;99201.44;;;4.25;60.54
50672;BME280;46021;55.882;37.654;2023-03-23T01:46:44;99198.88;;;4.24;60.13
50672;BME280;46021;55.882;37.654;2023-03-23T01:49:15;99193.63;;;4.28;59.10
50672;BME280;46021;55.882;37.654;2023-03-23T01:51:48;99178.22;;;4.25;60.00
50672;BME280;46021;55.882;37.654;2023-03-23T01:54:19;99184.28;;;4.21;59.72
50672;BME280;46021;55.882;37.654;2023-03-23T01:56:50;99186.84;;;4.23;59.65
50672;BME280;46021;55.882;37.654;2023-03-23T01:59:19;99187.75;;;4.20;59.80
50672;BME280;46021;55.882;37.654;2023-03-23T02:01:55;99185.16;;;4.20;60.17
50672;BME280;46021;55.882;37.654;2023-03-23T02:04:25;99183.44;;;4.19;60.56
50672;BME280;46021;55.882;37.654;2023-03-23T02:06:53;99183.44;;;4.18;59.61
50672;BME280;46021;55.882;37.654;2023-03-23T02:09:24;99185.19;;;4.19;59.56
50672;BME280;46021;55.882;37.654;2023-03-23T02:11:53;99180.09;;;4.14;59.67
50672;BME280;46021;55.882;37.654;2023-03-23T02:14:21;99179.28;;;4.09;59.72
50672;BME280;46021;55.882;37.654;2023-03-23T02:16:54;99170.75;;;4.04;60.05
50672;BME280;46021;55.882;37.654;2023-03-23T02:22:43;99163.22;;;3.90;60.94
50672;BME280;46021;55.882;37.654;2023-03-23T02:25:32;99163.34;;;3.79;61.24
50672;BME280;46021;55.882;37.654;2023-03-23T02:28:19;99151.44;;;3.70;60.98
50672;BME280;46021;55.882;37.654;2023-03-23T02:31:05;99155.84;;;3.61;61.89
50672;BME280;46021;55.882;37.654;2023-03-23T02:33:43;99155.00;;;3.59;62.31
50672;BME280;46021;55.882;37.654;2023-03-23T02:36:19;99147.34;;;3.53;61.91
50672;BME280;46021;55.882;37.654;2023-03-23T02:38:54;99152.50;;;3.53;62.26
50672;BME280;46021;55.882;37.654;2023-03-23T02:41:25;99150.78;;;3.51;61.29
50672;BME280;46021;55.882;37.654;2023-03-23T02:43:57;99156.81;;;3.50;61.88
50672;BME280;46021;55.882;37.654;2023-03-23T02:46:25;99156.81;;;3.50;62.21
50672;BME280;46021;55.882;37.654;2023-03-23T02:48:57;99164.59;;;3.47;62.19
50672;BME280;46021;55.882;37.654;2023-03-23T02:51:27;99150.88;;;3.45;62.59
50672;BME280;46021;55.882;37.654;2023-03-23T02:53:55;99162.91;;;3.45;62.34
50672;BME280;46021;55.882;37.654;2023-03-23T02:56:25;99146.66;;;3.38;62.56
50672;BME280;46021;55.882;37.654;2023-03-23T02:58:55;99161.16;;;3.45;62.19
50672;BME280;46021;55.882;37.654;2023-03-23T03:01:49;99159.44;;;3.47;62.18
50672;BME280;46021;55.882;37.654;2023-03-23T03:04:22;99150.00;;;3.46;62.06
50672;BME280;46021;55.882;37.654;2023-03-23T03:10:08;99145.72;;;3.45;62.50
50672;BME280;46021;55.882;37.654;2023-03-23T03:12:46;99154.34;;;3.44;62.05
50672;BME280;46021;55.882;37.654;2023-03-23T03:15:21;99154.34;;;3.44;63.06
50672;BME280;46021;55.882;37.654;2023-03-23T03:17:57;99147.47;;;3.43;62.99
50672;BME280;46021;55.882;37.654;2023-03-23T03:20:28;99145.78;;;3.39;63.37
50672;BME280;46021;55.882;37.654;2023-03-23T03:22:57;99140.63;;;3.41;62.45
50672;BME280;46021;55.882;37.654;2023-03-23T03:25:27;99135.50;;;3.38;63.39
50672;BME280;46021;55.882;37.654;2023-03-23T03:27:57;99143.28;;;3.35;62.86
50672;BME280;46021;55.882;37.654;2023-03-23T03:30:40;99139.00;;;3.32;63.55
50672;BME280;46021;55.882;37.654;2023-03-23T03:33:10;99135.59;;;3.30;62.98
50672;BME280;46021;55.882;37.654;2023-03-23T03:35:41;99137.34;;;3.28;63.49
50672;BME280;46021;55.882;37.654;2023-03-23T03:38:11;99143.31;;;3.30;63.82
50672;BME280;46021;55.882;37.654;2023-03-23T03:40:39;99135.66;;;3.24;64.66
50672;BME280;46021;55.882;37.654;2023-03-23T03:43:06;99140.75;;;3.30;63.68
50672;BME280;46021;55.882;37.654;2023-03-23T03:45:34;99133.81;;;3.35;63.85
50672;BME280;46021;55.882;37.654;2023-03-23T03:48:01;99132.81;;;3.47;63.51
50672;BME280;46021;55.882;37.654;2023-03-23T03:50:29;99133.47;;;3.63;63.43
50672;BME280;46021;55.882;37.654;2023-03-23T03:52:58;99127.22;;;3.84;63.80
50672;BME280;46021;55.882;37.654;2023-03-23T03:55:25;99130.44;;;3.97;63.53
50672;BME280;46021;55.882;37.654;2023-03-23T03:57:54;99124.44;;;3.98;63.04
50672;BME280;46021;55.882;37.654;2023-03-23T04:00:49;99121.84;;;3.99;63.15
50672;BME280;46021;55.882;37.654;2023-03-23T04:03:21;99133.78;;;4.05;62.55
50672;BME280;46021;55.882;37.654;2023-03-23T04:06:11;99127.56;;;4.20;63.00
50672;BME280;46021;55.882;37.654;2023-03-23T04:08:40;99124.03;;;4.25;63.20
50672;BME280;46021;55.882;37.654;2023-03-23T04:11:07;99129.97;;;4.29;62.30
50672;BME280;46021;55.882;37.654;2023-03-23T04:13:35;99127.31;;;4.37;61.87
50672;BME280;46021;55.882;37.654;2023-03-23T04:16:07;99124.59;;;4.44;61.98
50672;BME280;46021;55.882;37.654;2023-03-23T04:18:35;99121.22;;;4.39;62.58
50672;BME280;46021;55.882;37.654;2023-03-23T04:21:04;99120.28;;;4.45;62.04
50672;BME280;46021;55.882;37.654;2023-03-23T04:23:33;99120.81;;;4.65;62.32
50672;BME280;46021;55.882;37.654;2023-03-23T04:26:04;99103.03;;;4.97;62.58
50672;BME280;46021;55.882;37.654;2023-03-23T04:28:38;99109.25;;;5.75;62.15
50672;BME280;46021;55.882;37.654;2023-03-23T04:31:41;99107.13;;;6.68;61.60
50672;BME280;46021;55.882;37.654;2023-03-23T04:34:29;99103.38;;;7.44;59.68
50672;BME280;46021;55.882;37.654;2023-03-23T04:37:00;99110.16;;;8.07;58.09
50672;BME280;46021;55.882;37.654;2023-03-23T04:39:30;99112.13;;;8.55;55.35
50672;BME280;46021;55.882;37.654;2023-03-23T04:42:01;99110.69;;;8.98;54.77
50672;BME280;46021;55.882;37.654;2023-03-23T04:44:47;99115.59;;;9.55;54.32
50672;BME280;46021;55.882;37.654;2023-03-23T04:47:26;99118.97;;;10.04;53.14
50672;BME280;46021;55.882;37.654;2023-03-23T04:49:56;99111.53;;;10.39;52.12
50672;BME280;46021;55.882;37.654;2023-03-23T04:52:29;99121.16;;;10.59;51.19
50672;BME280;46021;55.882;37.654;2023-03-23T04:54:59;99119.50;;;10.36;50.01
50672;BME280;46021;55.882;37.654;2023-03-23T04:57:30;99115.66;;;10.45;49.91
50672;BME280;46021;55.882;37.654;2023-03-23T05:00:18;99102.06;;;11.00;50.16
50672;BME280;46021;55.882;37.654;2023-03-23T05:02:50;99110.59;;;11.63;49.48
50672;BME280;46021;55.882;37.654;2023-03-23T05:05:22;99109.75;;;12.20;48.26
50672;BME280;46021;55.882;37.654;2023-03-23T05:07:51;99103.66;;;12.73;47.21
50672;BME280;46021;55.882;37.654;2023-03-23T05:10:22;99104.81;;;12.85;45.94
50672;BME280;46021;55.882;37.654;2023-03-23T05:12:53;99122.25;;;13.19;44.33
50672;BME280;46021;55.882;37.654;2023-03-23T05:15:20;99107.75;;;13.14;44.99
50672;BME280;46021;55.882;37.654;2023-03-23T05:17:47;99110.44;;;13.12;43.95
50672;BME280;46021;55.882;37.654;2023-03-23T05:20:19;99117.56;;;13.26;44.63
50672;BME280;46021;55.882;37.654;2023-03-23T05:22:50;99119.47;;;13.73;43.92
50672;BME280;46021;55.882;37.654;2023-03-23T05:25:25;99116.78;;;13.75;42.95
50672;BME280;46021;55.882;37.654;2023-03-23T05:28:00;99120.38;;;13.56;42.29
50672;BME280;46021;55.882;37.654;2023-03-23T05:30:43;99113.81;;;13.32;42.13
50672;BME280;46021;55.882;37.654;2023-03-23T05:33:13;99115.81;;;13.44;42.84
50672;BME280;46021;55.882;37.654;2023-03-23T05:35:50;99124.59;;;12.73;42.17
50672;BME280;46021;55.882;37.654;2023-03-23T05:38:24;99115.03;;;11.42;43.01
50672;BME280;46021;55.882;37.654;2023-03-23T05:40:52;99112.88;;;9.82;45.25
50672;BME280;46021;55.882;37.654;2023-03-23T05:43:28;99136.78;;;8.69;47.29
50672;BME280;46021;55.882;37.654;2023-03-23T05:46:06;99126.47;;;7.83;49.06
50672;BME280;46021;55.882;37.654;2023-03-23T05:48:35;99127.19;;;7.27;50.11
50672;BME280;46021;55.882;37.654;2023-03-23T05:51:04;99120.66;;;6.79;51.68
50672;BME280;46021;55.882;37.654;2023-03-23T05:53:35;99120.09;;;6.32;53.04
50672;BME280;46021;55.882;37.654;2023-03-23T05:56:03;99122.31;;;6.10;53.74
50672;BME280;46021;55.882;37.654;2023-03-23T05:58:48;99119.41;;;5.84;55.33
50672;BME280;46021;55.882;37.654;2023-03-23T06:01:15;99130.53;;;5.88;55.27
50672;BME280;46021;55.882;37.654;2023-03-23T06:03:43;99125.47;;;5.82;55.71
50672;BME280;46021;55.882;37.654;2023-03-23T06:06:16;99122.06;;;5.80;55.82
50672;BME280;46021;55.882;37.654;2023-03-23T06:09:06;99122.22;;;5.72;56.58
50672;BME280;46021;55.882;37.654;2023-03-23T06:11:54;99117.88;;;5.74;55.88
50672;BME280;46021;55.882;37.654;2023-03-23T06:14:42;99117.19;;;5.66;56.22
50672;BME280;46021;55.882;37.654;2023-03-23T06:17:12;99122.19;;;5.74;56.85
50672;BME280;46021;55.882;37.654;2023-03-23T06:19:39;99111.81;;;5.75;56.34
50672;BME280;46021;55.882;37.654;2023-03-23T06:22:13;99115.44;;;5.68;57.65
50672;BME280;46021;55.882;37.654;2023-03-23T06:24:47;99108.50;;;5.69;56.87
50672;BME280;46021;55.882;37.654;2023-03-23T06:27:19;99109.16;;;5.78;57.54
50672;BME280;46021;55.882;37.654;2023-03-23T06:29:47;99111.06;;;5.70;58.46
50672;BME280;46021;55.882;37.654;2023-03-23T06:32:15;99104.22;;;5.69;58.47
50672;BME280;46021;55.882;37.654;2023-03-23T06:34:43;99120.41;;;5.77;58.42
50672;BME280;46021;55.882;37.654;2023-03-23T06:37:34;99110.88;;;5.79;58.62
50672;BME280;46021;55.882;37.654;2023-03-23T06:40:11;99112.41;;;5.88;58.14
50672;BME280;46021;55.882;37.654;2023-03-23T06:42:41;99099.34;;;5.96;57.87
50672;BME280;46021;55.882;37.654;2023-03-23T06:45:32;99104.31;;;6.05;57.84
50672;BME280;46021;55.882;37.654;2023-03-23T06:48:18;99101.44;;;6.17;57.62
50672;BME280;46021;55.882;37.654;2023-03-23T06:50:45;99099.44;;;6.29;57.68
50672;BME280;46021;55.882;37.654;2023-03-23T06:53:15;99079.75;;;6.21;57.55
50672;BME280;46021;55.882;37.654;2023-03-23T06:55:44;99093.22;;;6.37;57.80
50672;BME280;46021;55.882;37.654;2023-03-23T06:58:12;99093.66;;;6.53;57.09
50672;BME280;46021;55.882;37.654;2023-03-23T07:00:41;99094.19;;;6.68;57.07
50672;BME280;46021;55.882;37.654;2023-03-23T07:03:12;99094.28;;;6.63;57.19
50672;BME280;46021;55.882;37.654;2023-03-23T07:05:39;99096.91;;;6.61;56.91
50672;BME280;46021;55.882;37.654;2023-03-23T07:08:09;99097.44;;;6.74;56.53
50672;BME280;46021;55.882;37.654;2023-03-23T07:10:45;99098.47;;;6.69;57.27
50672;BME280;46021;55.882;37.654;2023-03-23T07:13:13;99086.31;;;6.71;56.73
50672;BME280;46021;55.882;37.654;2023-03-23T07:15:50;99081.06;;;6.74;56.93
50672;BME280;46021;55.882;37.654;2023-03-23T07:18:18;99080.13;;;6.76;56.65
50672;BME280;46021;55.882;37.654;2023-03-23T07:20:48;99086.84;;;6.83;56.73
50672;BME280;46021;55.882;37.654;2023-03-23T07:23:16;99087.38;;;6.96;56.58
50672;BME280;46021;55.882;37.654;2023-03-23T07:25:49;99079.41;;;7.04;56.29
50672;BME280;46021;55.882;37.654;2023-03-23T07:28:22;99082.69;;;7.11;56.18
50672;BME280;46021;55.882;37.654;2023-03-23T07:30:52;99092.50;;;6.99;56.47
50672;BME280;46021;55.882;37.654;2023-03-23T07:33:20;99084.84;;;6.95;56.38
50672;BME280;46021;55.882;37.654;2023-03-23T07:35:48;99087.38;;;6.96;56.57
50672;BME280;46021;55.882;37.654;2023-03-23T07:38:18;99097.59;;;7.02;56.36
50672;BME280;46021;55.882;37.654;2023-03-23T07:40:52;99073.63;;;6.94;56.65
50672;BME280;46021;55.882;37.654;2023-03-23T07:43:20;99076.66;;;7.09;56.25
50672;BME280;46021;55.882;37.654;2023-03-23T07:46:08;99081.56;;;7.19;55.76
50672;BME280;46021;55.882;37.654;2023-03-23T07:48:59;99062.34;;;7.28;55.66
50672;BME280;46021;55.882;37.654;2023-03-23T07:51:35;99065.53;;;7.36;55.64
50672;BME280;46021;55.882;37.654;2023-03-23T07:54:04;99063.56;;;7.45;55.06
50672;BME280;46021;55.882;37.654;2023-03-23T07:56:53;99066.69;;;7.56;55.23
50672;BME280;46021;55.882;37.654;2023-03-23T07:59:24;99070.75;;;7.66;54.17
50672;BME280;46021;55.882;37.654;2023-03-23T08:01:53;99050.97;;;7.62;53.88
50672;BME280;46021;55.882;37.654;2023-03-23T08:04:26;99066.88;;;7.79;53.80
50672;BME280;46021;55.882;37.654;2023-03-23T08:07:10;99057.28;;;7.81;54.19
50672;BME280;46021;55.882;37.654;2023-03-23T08:10:01;99077.59;;;7.97;53.45
50672;BME280;46021;55.882;37.654;2023-03-23T08:12:49;99067.19;;;7.97;53.31
50672;BME280;46021;55.882;37.654;2023-03-23T08:15:32;99044.63;;;7.99;53.44
50672;BME280;46021;55.882;37.654;2023-03-23T08:18:17;99073.75;;;8.09;52.71
50672;BME280;46021;55.882;37.654;2023-03-23T08:20:53;99060.59;;;8.15;52.63
50672;BME280;46021;55.882;37.654;2023-03-23T08:23:37;99051.56;;;8.27;52.68
50672;BME280;46021;55.882;37.654;2023-03-23T08:26:40;99046.63;;;8.46;52.19
50672;BME280;46021;55.882;37.654;2023-03-23T08:29:45;99032.53;;;8.53;52.04
50672;BME280;46021;55.882;37.654;2023-03-23T08:32:36;99033.66;;;8.46;51.73
50672;BME280;46021;55.882;37.654;2023-03-23T08:35:15;99031.16;;;8.41;51.49
50672;BME280;46021;55.882;37.654;2023-03-23T08:38:03;99024.09;;;8.46;52.05
50672;BME280;46021;55.882;37.654;2023-03-23T08:41:05;99026.34;;;8.57;51.62
50672;BME280;46021;55.882;37.654;2023-03-23T08:43:56;99018.06;;;8.71;51.29
50672;BME280;46021;55.882;37.654;2023-03-23T08:46:52;99014.78;;;8.91;50.95
50672;BME280;46021;55.882;37.654;2023-03-23T08:49:45;99015.41;;;9.21;50.56
50672;BME280;46021;55.882;37.654;2023-03-23T08:52:41;98997.94;;;9.47;50.26
50672;BME280;46021;55.882;37.654;2023-03-23T08:55:38;98990.34;;;10.08;50.16
50672;BME280;46021;55.882;37.654;2023-03-23T08:58:24;98985.69;;;11.73;50.04
50672;BME280;46021;55.882;37.654;2023-03-23T09:01:12;98974.69;;;14.01;46.51
50672;BME280;46021;55.882;37.654;2023-03-23T09:03:40;98964.41;;;15.85;43.36
50672;BME280;46021;55.882;37.654;2023-03-23T09:06:25;98973.28;;;17.27;37.71
50672;BME280;46021;55.882;37.654;2023-03-23T09:08:54;98961.94;;;17.74;36.26
50672;BME280;46021;55.882;37.654;2023-03-23T09:11:22;98947.81;;;17.88;35.54
50672;BME280;46021;55.882;37.654;2023-03-23T09:13:49;98962.09;;;18.33;35.27
50672;BME280;46021;55.882;37.654;2023-03-23T09:16:16;98965.41;;;18.59;34.56
50672;BME280;46021;55.882;37.654;2023-03-23T09:18:43;98962.91;;;19.36;33.61
50672;BME280;46021;55.882;37.654;2023-03-23T09:21:11;98952.06;;;20.27;32.78
50672;BME280;46021;55.882;37.654;2023-03-23T09:23:39;98938.22;;;20.86;32.49
50672;BME280;46021;55.882;37.654;2023-03-23T09:26:11;98938.00;;;20.99;30.44
50672;BME280;46021;55.882;37.654;2023-03-23T09:28:38;98933.13;;;20.52;30.11
50672;BME280;46021;55.882;37.654;2023-03-23T09:31:05;98942.25;;;20.38;30.67
50672;BME280;46021;55.882;37.654;2023-03-23T09:33:33;98932.16;;;21.05;31.72
50672;BME280;46021;55.882;37.654;2023-03-23T09:36:00;98926.41;;;21.40;30.60
50672;BME280;46021;55.882;37.654;2023-03-23T09:38:28;98924.41;;;21.93;29.54
50672;BME280;46021;55.882;37.654;2023-03-23T09:41:04;98920.03;;;21.53;28.01
50672;BME280;46021;55.882;37.654;2023-03-23T09:43:44;98918.09;;;19.90;28.66
50672;BME280;46021;55.882;37.654;2023-03-23T09:46:24;98905.66;;;19.58;29.66
50672;BME280;46021;55.882;37.654;2023-03-23T09:48:54;98907.13;;;19.51;30.81
50672;BME280;46021;55.882;37.654;2023-03-23T09:51:32;98901.72;;;20.38;29.36
50672;BME280;46021;55.882;37.654;2023-03-23T09:54:10;98901.38;;;20.83;28.65
50672;BME280;46021;55.882;37.654;2023-03-23T09:56:40;98902.56;;;19.96;29.26
50672;BME280;46021;55.882;37.654;2023-03-23T09:59:14;98891.03;;;19.54;29.87
50672;BME280;46021;55.882;37.654;2023-03-23T10:01:46;98903.63;;;18.95;29.95
50672;BME280;46021;55.882;37.654;2023-03-23T10:04:32;98894.34;;;18.56;30.44
50672;BME280;46021;55.882;37.654;2023-03-23T10:07:10;98893.53;;;18.55;30.05
50672;BME280;46021;55.882;37.654;2023-03-23T10:09:38;98886.81;;;19.19;30.75
50672;BME280;46021;55.882;37.654;2023-03-23T10:12:20;98884.50;;;19.58;30.55
50672;BME280;46021;55.882;37.654;2023-03-23T10:15:10;98884.97;;;20.89;28.03
50672;BME280;46021;55.882;37.654;2023-03-23T10:17:44;98896.94;;;21.43;27.08
50672;BME280;46021;55.882;37.654;2023-03-23T10:20:27;98876.06;;;21.00;26.95
50672;BME280;46021;55.882;37.654;2023-03-23T10:23:01;98871.31;;;20.11;28.19
50672;BME280;46021;55.882;37.654;2023-03-23T10:25:34;98867.25;;;19.86;28.20
50672;BME280;46021;55.882;37.654;2023-03-23T10:28:05;98870.28;;;20.54;28.89
50672;BME280;46021;55.882;37.654;2023-03-23T10:30:37;98859.13;;;19.99;27.78
50672;BME280;46021;55.882;37.654;2023-03-23T10:33:11;98859.13;;;19.99;28.01
50672;BME280;46021;55.882;37.654;2023-03-23T10:35:43;98866.47;;;20.16;28.60
50672;BME280;46021;55.882;37.654;2023-03-23T10:38:15;98865.69;;;19.51;27.87
50672;BME280;46021;55.882;37.654;2023-03-23T10:40:49;98876.97;;;19.09;28.92
50672;BME280;46021;55.882;37.654;2023-03-23T10:43:18;98880.56;;;19.08;29.49
50672;BME280;46021;55.882;37.654;2023-03-23T10:45:52;98860.56;;;19.38;29.12
50672;BME280;46021;55.882;37.654;2023-03-23T10:48:25;98872.94;;;19.81;29.27
50672;BME280;46021;55.882;37.654;2023-03-23T10:50:57;98882.28;;;18.98;28.82
50672;BME280;46021;55.882;37.654;2023-03-23T10:53:32;98880.44;;;17.96;29.67
50672;BME280;46021;55.882;37.654;2023-03-23T10:55:59;98877.13;;;17.45;30.47
50672;BME280;46021;55.882;37.654;2023-03-23T10:58:28;98869.00;;;16.62;31.70
50672;BME280;46021;55.882;37.654;2023-03-23T11:00:59;98877.88;;;15.82;32.93
50672;BME280;46021;55.882;37.654;2023-03-23T11:03:38;98872.13;;;15.63;33.17
50672;BME280;46021;55.882;37.654;2023-03-23T11:06:08;98874.16;;;16.12;33.36
50672;BME280;46021;55.882;37.654;2023-03-23T11:08:46;98860.63;;;17.06;32.80
50672;BME280;46021;55.882;37.654;2023-03-23T11:11:16;98859.13;;;17.99;31.25
50672;BME280;46021;55.882;37.654;2023-03-23T11:13:45;98870.25;;;17.67;30.74
50672;BME280;46021;55.882;37.654;2023-03-23T11:16:23;98857.22;;;16.67;31.58
50672;BME280;46021;55.882;37.654;2023-03-23T11:18:50;98858.50;;;16.23;32.55
50672;BME280;46021;55.882;37.654;2023-03-23T11:21:20;98856.38;;;15.63;33.66
50672;BME280;46021;55.882;37.654;2023-03-23T11:23:50;98874.75;;;15.08;34.17
50672;BME280;46021;55.882;37.654;2023-03-23T11:26:21;98873.16;;;15.06;33.69
50672;BME280;46021;55.882;37.654;2023-03-23T11:28:55;98870.19;;;14.40;34.88
50672;BME280;46021;55.882;37.654;2023-03-23T11:31:28;98867.31;;;13.86;35.74
50672;BME280;46021;55.882;37.654;2023-03-23T11:33:59;98877.69;;;13.25;37.09
50672;BME280;46021;55.882;37.654;2023-03-23T11:36:33;98873.22;;;12.95;36.98
50672;BME280;46021;55.882;37.654;2023-03-23T11:39:03;98869.00;;;12.43;38.10
50672;BME280;46021;55.882;37.654;2023-03-23T11:41:33;98875.13;;;12.60;38.68
50672;BME280;46021;55.882;37.654;2023-03-23T11:44:10;98860.53;;;12.56;38.32
50672;BME280;46021;55.882;37.654;2023-03-23T11:46:46;98879.53;;;12.42;39.10
50672;BME280;46021;55.882;37.654;2023-03-23T11:49:24;98863.69;;;12.29;38.61
50672;BME280;46021;55.882;37.654;2023-03-23T11:51:56;98870.56;;;12.30;38.74
50672;BME280;46021;55.882;37.654;2023-03-23T11:54:30;98873.97;;;12.15;39.24
50672;BME280;46021;55.882;37.654;2023-03-23T11:56:58;98859.34;;;12.28;38.87
50672;BME280;46021;55.882;37.654;2023-03-23T11:59:28;98858.66;;;12.24;39.79
50672;BME280;46021;55.882;37.654;2023-03-23T12:02:08;98849.56;;;12.16;39.48
50672;BME280;46021;55.882;37.654;2023-03-23T12:05:19;98867.59;;;12.20;39.75
50672;BME280;46021;55.882;37.654;2023-03-23T12:07:56;98851.91;;;12.20;40.04
50672;BME280;46021;55.882;37.654;2023-03-23T12:10:35;98862.00;;;12.11;40.04
50672;BME280;46021;55.882;37.654;2023-03-23T12:13:21;98869.53;;;11.99;40.86
50672;BME280;46021;55.882;37.654;2023-03-23T12:15:55;98863.69;;;11.94;40.58
50672;BME280;46021;55.882;37.654;2023-03-23T12:18:37;98843.94;;;11.54;41.35
50672;BME280;46021;55.882;37.654;2023-03-23T12:21:12;98861.94;;;11.23;42.43
50672;BME280;46021;55.882;37.654;2023-03-23T12:23:47;98865.75;;;10.97;43.30
50672;BME280;46021;55.882;37.654;2023-03-23T12:26:20;98874.28;;;10.82;43.55
50672;BME280;46021;55.882;37.654;2023-03-23T12:29:13;98863.44;;;10.72;43.72
50672;BME280;46021;55.882;37.654;2023-03-23T12:31:52;98862.66;;;10.70;43.81
50672;BME280;46021;55.882;37.654;2023-03-23T12:34:33;98855.63;;;10.72;43.77
50672;BME280;46021;55.882;37.654;2023-03-23T12:37:18;98846.31;;;10.85;43.81
50672;BME280;46021;55.882;37.654;2023-03-23T12:40:00;98849.53;;;10.90;43.67
50672;BME280;46021;55.882;37.654;2023-03-23T12:42:39;98849.75;;;11.05;43.49
50672;BME280;46021;55.882;37.654;2023-03-23T12:45:13;98829.03;;;11.02;43.70
50672;BME280;46021;55.882;37.654;2023-03-23T12:47:50;98836.47;;;11.09;43.55
50672;BME280;46021;55.882;37.654;2023-03-23T12:50:26;98832.66;;;11.17;43.28
50672;BME280;46021;55.882;37.654;2023-03-23T12:52:58;98826.97;;;11.08;43.45
50672;BME280;46021;55.882;37.654;2023-03-23T12:55:31;98824.13;;;11.13;43.46
50672;BME280;46021;55.882;37.654;2023-03-23T12:58:04;98836.28;;;11.14;43.27
50672;BME280;46021;55.882;37.654;2023-03-23T13:03:26;98819.66;;;10.98;43.51
50672;BME280;46021;55.882;37.654;2023-03-23T13:06:00;98820.94;;;11.08;43.73
50672;BME280;46021;55.882;37.654;2023-03-23T13:08:31;98822.22;;;11.17;43.55
50672;BME280;46021;55.882;37.654;2023-03-23T13:11:02;98825.72;;;11.17;43.80
50672;BME280;46021;55.882;37.654;2023-03-23T13:13:43;98817.66;;;11.22;43.49
50672;BME280;46021;55.882;37.654;2023-03-23T13:16:16;98820.19;;;11.23;43.49
50672;BME280;46021;55.882;37.654;2023-03-23T13:18:52;98818.66;;;11.19;43.71
50672;BME280;46021;55.882;37.654;2023-03-23T13:21:28;98813.91;;;11.27;43.35
50672;BME280;46021;55.882;37.654;2023-03-23T13:24:00;98815.75;;;11.25;43.68
50672;BME280;46021;55.882;37.654;2023-03-23T13:26:30;98807.06;;;11.25;43.90
50672;BME280;46021;55.882;37.654;2023-03-23T13:28:59;98793.78;;;11.29;43.71
50672;BME280;46021;55.882;37.654;2023-03-23T13:31:29;98797.78;;;11.19;43.95
50672;BME280;46021;55.882;37.654;2023-03-23T13:34:10;98805.81;;;11.15;43.67
50672;BME280;46021;55.882;37.654;2023-03-23T13:36:42;98801.63;;;10.93;44.34
50672;BME280;46021;55.882;37.654;2023-03-23T13:39:18;98783.88;;;10.82;44.56
50672;BME280;46021;55.882;37.654;2023-03-23T13:41:48;98806.00;;;10.73;44.51